sensor_id;sensor_type;location;lat;lon;timestamp;temperature;humidity
75786;DHT22;64402;44.708;37.644;2023-07-20T00:02:16;18.04;80.88
75786;DHT22;64402;44.708;37.644;2023-07-20T00:04:43;18.02;80.87
75786;DHT22;64402;44.708;37.644;2023-07-20T00:07:09;18.00;80.91
75786;DHT22;64402;44.708;37.644;2023-07-20T00:09:35;17.99;80.77
75786;DHT22;64402;44.708;37.644;2023-07-20T00:12:01;17.99;80.56
75786;DHT22;64402;44.708;37.644;2023-07-20T00:14:27;17.97;80.64
75786;DHT22;64402;44.708;37.644;2023-07-20T00:16:55;17.99;80.54
75786;DHT22;64402;44.708;37.644;2023-07-20T00:19:23;17.96;80.68
75786;DHT22;64402;44.708;37.644;2023-07-20T00:21:50;17.95;80.46
75786;DHT22;64402;44.708;37.644;2023-07-20T00:24:16;17.95;80.74
75786;DHT22;64402;44.708;37.644;2023-07-20T00:26:43;17.97;80.27
75786;DHT22;64402;44.708;37.644;2023-07-20T00:29:09;17.95;80.10
75786;DHT22;64402;44.708;37.644;2023-07-20T00:31:36;17.93;80.27
75786;DHT22;64402;44.708;37.644;2023-07-20T00:34:03;17.91;80.11
75786;DHT22;64402;44.708;37.644;2023-07-20T00:36:29;17.88;80.07
75786;DHT22;64402;44.708;37.644;2023-07-20T00:38:56;17.87;79.88
75786;DHT22;64402;44.708;37.644;2023-07-20T00:41:22;17.84;80.05
75786;DHT22;64402;44.708;37.644;2023-07-20T00:43:48;17.83;79.97
75786;DHT22;64402;44.708;37.644;2023-07-20T00:46:14;17.79;79.96
75786;DHT22;64402;44.708;37.644;2023-07-20T00:48:41;17.77;79.84
75786;DHT22;64402;44.708;37.644;2023-07-20T00:51:08;17.74;80.17
75786;DHT22;64402;44.708;37.644;2023-07-20T00:53:34;17.70;80.04
75786;DHT22;64402;44.708;37.644;2023-07-20T00:56:00;17.68;80.19
75786;DHT22;64402;44.708;37.644;2023-07-20T00:58:27;17.68;80.40
75786;DHT22;64402;44.708;37.644;2023-07-20T01:00:53;17.65;79.95
75786;DHT22;64402;44.708;37.644;2023-07-20T01:03:20;17.62;80.11
75786;DHT22;64402;44.708;37.644;2023-07-20T01:06:26;17.62;79.98
75786;DHT22;64402;44.708;37.644;2023-07-20T01:14:54;17.52;80.73
75786;DHT22;64402;44.708;37.644;2023-07-20T01:17:20;17.53;80.82
75786;DHT22;64402;44.708;37.644;2023-07-20T01:19:46;17.54;80.36
75786;DHT22;64402;44.708;37.644;2023-07-20T01:33:50;17.44;81.01
75786;DHT22;64402;44.708;37.644;2023-07-20T01:36:22;17.44;80.98
75786;DHT22;64402;44.708;37.644;2023-07-20T01:38:49;17.40;81.14
75786;DHT22;64402;44.708;37.644;2023-07-20T01:41:17;17.40;81.45
75786;DHT22;64402;44.708;37.644;2023-07-20T01:43:44;17.38;81.79
75786;DHT22;64402;44.708;37.644;2023-07-20T01:46:10;17.38;81.92
75786;DHT22;64402;44.708;37.644;2023-07-20T01:48:36;17.39;81.16
75786;DHT22;64402;44.708;37.644;2023-07-20T01:51:02;17.38;81.33
75786;DHT22;64402;44.708;37.644;2023-07-20T01:53:28;17.36;81.30
75786;DHT22;64402;44.708;37.644;2023-07-20T01:55:55;17.37;81.04
75786;DHT22;64402;44.708;37.644;2023-07-20T01:58:21;17.35;81.24
75786;DHT22;64402;44.708;37.644;2023-07-20T02:00:48;17.37;81.24
75786;DHT22;64402;44.708;37.644;2023-07-20T02:03:14;17.34;81.15
75786;DHT22;64402;44.708;37.644;2023-07-20T02:05:43;17.32;81.05
75786;DHT22;64402;44.708;37.644;2023-07-20T02:08:09;17.31;81.01
75786;DHT22;64402;44.708;37.644;2023-07-20T02:10:37;17.31;81.31
75786;DHT22;64402;44.708;37.644;2023-07-20T02:13:03;17.35;81.27
75786;DHT22;64402;44.708;37.644;2023-07-20T02:15:30;17.39;81.04
75786;DHT22;64402;44.708;37.644;2023-07-20T02:17:56;17.41;81.00
75786;DHT22;64402;44.708;37.644;2023-07-20T02:20:22;17.46;81.23
75786;DHT22;64402;44.708;37.644;2023-07-20T02:22:48;17.47;81.06
75786;DHT22;64402;44.708;37.644;2023-07-20T02:25:14;17.50;81.17
75786;DHT22;64402;44.708;37.644;2023-07-20T02:27:40;17.49;80.90
75786;DHT22;64402;44.708;37.644;2023-07-20T02:30:07;17.52;80.88
75786;DHT22;64402;44.708;37.644;2023-07-20T02:32:33;17.51;80.88
75786;DHT22;64402;44.708;37.644;2023-07-20T02:35:00;17.53;80.65
75786;DHT22;64402;44.708;37.644;2023-07-20T02:37:26;17.58;80.73
75786;DHT22;64402;44.708;37.644;2023-07-20T02:39:52;17.60;80.46
75786;DHT22;64402;44.708;37.644;2023-07-20T02:42:18;17.58;80.58
75786;DHT22;64402;44.708;37.644;2023-07-20T02:44:45;17.54;80.59
75786;DHT22;64402;44.708;37.644;2023-07-20T02:47:11;17.56;80.66
75786;DHT22;64402;44.708;37.644;2023-07-20T02:49:37;17.61;80.55
75786;DHT22;64402;44.708;37.644;2023-07-20T02:52:03;17.60;80.62
75786;DHT22;64402;44.708;37.644;2023-07-20T02:54:30;17.61;80.51
75786;DHT22;64402;44.708;37.644;2023-07-20T02:56:56;17.65;80.59
75786;DHT22;64402;44.708;37.644;2023-07-20T02:59:22;17.74;80.43
75786;DHT22;64402;44.708;37.644;2023-07-20T03:01:48;17.78;79.94
75786;DHT22;64402;44.708;37.644;2023-07-20T03:04:15;17.75;80.56
75786;DHT22;64402;44.708;37.644;2023-07-20T03:06:42;17.77;80.51
75786;DHT22;64402;44.708;37.644;2023-07-20T03:09:08;17.83;79.95
75786;DHT22;64402;44.708;37.644;2023-07-20T03:11:35;17.90;80.06
75786;DHT22;64402;44.708;37.644;2023-07-20T03:14:01;17.93;80.04
75786;DHT22;64402;44.708;37.644;2023-07-20T03:16:27;18.04;79.82
75786;DHT22;64402;44.708;37.644;2023-07-20T03:18:53;18.13;79.92
75786;DHT22;64402;44.708;37.644;2023-07-20T03:21:19;18.20;79.60
75786;DHT22;64402;44.708;37.644;2023-07-20T03:23:46;18.27;79.26
75786;DHT22;64402;44.708;37.644;2023-07-20T03:26:12;18.39;79.09
75786;DHT22;64402;44.708;37.644;2023-07-20T03:28:38;18.51;78.98
75786;DHT22;64402;44.708;37.644;2023-07-20T03:31:05;18.62;78.56
75786;DHT22;64402;44.708;37.644;2023-07-20T03:33:32;18.73;78.61
75786;DHT22;64402;44.708;37.644;2023-07-20T03:35:59;18.86;78.82
75786;DHT22;64402;44.708;37.644;2023-07-20T03:38:27;19.00;78.15
75786;DHT22;64402;44.708;37.644;2023-07-20T03:43:21;19.27;77.88
75786;DHT22;64402;44.708;37.644;2023-07-20T03:45:50;19.41;77.60
75786;DHT22;64402;44.708;37.644;2023-07-20T03:48:20;19.58;77.05
75786;DHT22;64402;44.708;37.644;2023-07-20T03:50:49;19.73;76.78
75786;DHT22;64402;44.708;37.644;2023-07-20T03:53:16;19.84;77.27
75786;DHT22;64402;44.708;37.644;2023-07-20T03:55:49;19.95;76.70
75786;DHT22;64402;44.708;37.644;2023-07-20T03:58:16;20.10;77.08
75786;DHT22;64402;44.708;37.644;2023-07-20T04:00:46;20.22;76.43
75786;DHT22;64402;44.708;37.644;2023-07-20T04:03:13;20.34;76.01
75786;DHT22;64402;44.708;37.644;2023-07-20T04:05:39;20.46;74.47
75786;DHT22;64402;44.708;37.644;2023-07-20T04:08:05;20.59;74.55
75786;DHT22;64402;44.708;37.644;2023-07-20T04:10:32;20.69;74.84
75786;DHT22;64402;44.708;37.644;2023-07-20T04:12:58;20.80;74.61
75786;DHT22;64402;44.708;37.644;2023-07-20T04:15:24;20.90;75.51
75786;DHT22;64402;44.708;37.644;2023-07-20T04:17:50;21.01;75.05
75786;DHT22;64402;44.708;37.644;2023-07-20T04:20:16;21.11;73.78
75786;DHT22;64402;44.708;37.644;2023-07-20T04:22:44;21.22;73.43
75786;DHT22;64402;44.708;37.644;2023-07-20T04:25:10;21.35;72.70
75786;DHT22;64402;44.708;37.644;2023-07-20T04:27:36;21.46;72.50
75786;DHT22;64402;44.708;37.644;2023-07-20T04:30:03;21.60;71.43
75786;DHT22;64402;44.708;37.644;2023-07-20T04:32:29;21.72;71.41
75786;DHT22;64402;44.708;37.644;2023-07-20T04:34:56;21.84;71.26
75786;DHT22;64402;44.708;37.644;2023-07-20T04:37:22;21.95;70.39
75786;DHT22;64402;44.708;37.644;2023-07-20T04:39:48;22.07;70.48
75786;DHT22;64402;44.708;37.644;2023-07-20T04:42:14;22.18;70.47
75786;DHT22;64402;44.708;37.644;2023-07-20T04:44:41;22.29;70.13
75786;DHT22;64402;44.708;37.644;2023-07-20T04:47:07;22.40;70.77
75786;DHT22;64402;44.708;37.644;2023-07-20T04:49:34;22.51;70.10
75786;DHT22;64402;44.708;37.644;2023-07-20T04:52:00;22.63;69.30
75786;DHT22;64402;44.708;37.644;2023-07-20T04:54:28;22.75;69.00
75786;DHT22;64402;44.708;37.644;2023-07-20T04:56:54;22.85;69.29
75786;DHT22;64402;44.708;37.644;2023-07-20T04:59:20;22.95;68.83
75786;DHT22;64402;44.708;37.644;2023-07-20T05:01:46;23.05;69.26
75786;DHT22;64402;44.708;37.644;2023-07-20T05:04:13;23.18;69.13
75786;DHT22;64402;44.708;37.644;2023-07-20T05:06:39;23.31;68.86
75786;DHT22;64402;44.708;37.644;2023-07-20T05:09:05;23.45;68.43
75786;DHT22;64402;44.708;37.644;2023-07-20T05:11:32;23.60;68.81
75786;DHT22;64402;44.708;37.644;2023-07-20T05:13:59;23.72;68.20
75786;DHT22;64402;44.708;37.644;2023-07-20T05:16:25;23.86;68.42
75786;DHT22;64402;44.708;37.644;2023-07-20T05:18:51;23.99;67.94
75786;DHT22;64402;44.708;37.644;2023-07-20T05:21:17;24.11;68.14
75786;DHT22;64402;44.708;37.644;2023-07-20T05:23:43;24.24;67.49
75786;DHT22;64402;44.708;37.644;2023-07-20T05:26:11;24.31;68.34
75786;DHT22;64402;44.708;37.644;2023-07-20T05:28:37;24.45;66.88
75786;DHT22;64402;44.708;37.644;2023-07-20T05:31:03;24.57;67.05
75786;DHT22;64402;44.708;37.644;2023-07-20T05:33:29;24.62;66.94
75786;DHT22;64402;44.708;37.644;2023-07-20T05:35:55;24.68;65.75
75786;DHT22;64402;44.708;37.644;2023-07-20T05:38:21;24.74;65.94
75786;DHT22;64402;44.708;37.644;2023-07-20T05:40:47;24.91;66.00
75786;DHT22;64402;44.708;37.644;2023-07-20T05:43:13;25.05;65.77
75786;DHT22;64402;44.708;37.644;2023-07-20T05:45:43;25.13;65.11
75786;DHT22;64402;44.708;37.644;2023-07-20T05:48:10;25.16;65.68
75786;DHT22;64402;44.708;37.644;2023-07-20T05:50:41;25.31;66.24
75786;DHT22;64402;44.708;37.644;2023-07-20T05:53:07;25.38;64.63
75786;DHT22;64402;44.708;37.644;2023-07-20T05:55:34;25.44;63.79
75786;DHT22;64402;44.708;37.644;2023-07-20T05:58:00;25.47;64.38
75786;DHT22;64402;44.708;37.644;2023-07-20T06:00:26;25.57;64.76
75786;DHT22;64402;44.708;37.644;2023-07-20T06:02:53;25.58;65.05
75786;DHT22;64402;44.708;37.644;2023-07-20T06:05:21;25.62;65.86
75786;DHT22;64402;44.708;37.644;2023-07-20T06:07:49;25.65;65.75
75786;DHT22;64402;44.708;37.644;2023-07-20T06:10:16;25.64;65.98
75786;DHT22;64402;44.708;37.644;2023-07-20T06:12:42;25.73;65.05
75786;DHT22;64402;44.708;37.644;2023-07-20T06:15:24;25.73;66.00
75786;DHT22;64402;44.708;37.644;2023-07-20T06:17:51;25.86;65.28
75786;DHT22;64402;44.708;37.644;2023-07-20T06:20:17;25.89;65.21
75786;DHT22;64402;44.708;37.644;2023-07-20T06:22:44;25.92;65.40
75786;DHT22;64402;44.708;37.644;2023-07-20T06:25:11;26.01;65.62
75786;DHT22;64402;44.708;37.644;2023-07-20T06:27:37;26.19;65.22
75786;DHT22;64402;44.708;37.644;2023-07-20T06:30:03;26.25;64.78
75786;DHT22;64402;44.708;37.644;2023-07-20T06:32:30;26.30;64.23
75786;DHT22;64402;44.708;37.644;2023-07-20T06:34:56;26.37;64.40
75786;DHT22;64402;44.708;37.644;2023-07-20T06:37:22;26.50;64.40
75786;DHT22;64402;44.708;37.644;2023-07-20T06:39:48;26.49;63.79
75786;DHT22;64402;44.708;37.644;2023-07-20T06:42:14;26.57;63.17
75786;DHT22;64402;44.708;37.644;2023-07-20T06:44:40;26.61;63.23
75786;DHT22;64402;44.708;37.644;2023-07-20T06:47:06;26.57;63.07
75786;DHT22;64402;44.708;37.644;2023-07-20T06:49:33;26.61;63.69
75786;DHT22;64402;44.708;37.644;2023-07-20T06:51:59;26.70;63.64
75786;DHT22;64402;44.708;37.644;2023-07-20T06:54:25;26.65;64.01
75786;DHT22;64402;44.708;37.644;2023-07-20T06:56:51;26.67;63.19
75786;DHT22;64402;44.708;37.644;2023-07-20T06:59:17;26.75;64.12
75786;DHT22;64402;44.708;37.644;2023-07-20T07:01:43;26.76;62.70
75786;DHT22;64402;44.708;37.644;2023-07-20T07:04:10;26.77;62.91
75786;DHT22;64402;44.708;37.644;2023-07-20T07:06:36;26.91;62.32
75786;DHT22;64402;44.708;37.644;2023-07-20T07:09:03;26.95;61.15
75786;DHT22;64402;44.708;37.644;2023-07-20T07:11:29;27.06;61.50
75786;DHT22;64402;44.708;37.644;2023-07-20T07:13:56;27.21;60.63
75786;DHT22;64402;44.708;37.644;2023-07-20T07:16:22;27.36;61.04
75786;DHT22;64402;44.708;37.644;2023-07-20T07:18:50;27.24;60.93
75786;DHT22;64402;44.708;37.644;2023-07-20T07:21:16;27.28;61.12
75786;DHT22;64402;44.708;37.644;2023-07-20T07:23:43;27.27;61.89
75786;DHT22;64402;44.708;37.644;2023-07-20T07:26:10;27.30;61.02
75786;DHT22;64402;44.708;37.644;2023-07-20T07:28:36;27.27;61.71
75786;DHT22;64402;44.708;37.644;2023-07-20T07:31:05;27.32;61.40
75786;DHT22;64402;44.708;37.644;2023-07-20T07:33:32;27.36;61.35
75786;DHT22;64402;44.708;37.644;2023-07-20T07:35:58;27.30;60.96
75786;DHT22;64402;44.708;37.644;2023-07-20T07:38:24;27.37;61.00
75786;DHT22;64402;44.708;37.644;2023-07-20T07:40:50;27.28;60.70
75786;DHT22;64402;44.708;37.644;2023-07-20T07:43:16;27.43;60.62
75786;DHT22;64402;44.708;37.644;2023-07-20T07:45:42;27.52;60.90
75786;DHT22;64402;44.708;37.644;2023-07-20T07:48:09;27.44;61.13
75786;DHT22;64402;44.708;37.644;2023-07-20T07:50:37;27.44;61.24
75786;DHT22;64402;44.708;37.644;2023-07-20T07:53:04;27.42;60.42
75786;DHT22;64402;44.708;37.644;2023-07-20T07:55:30;27.61;61.17
75786;DHT22;64402;44.708;37.644;2023-07-20T07:57:56;27.78;60.43
75786;DHT22;64402;44.708;37.644;2023-07-20T08:00:22;28.05;59.17
75786;DHT22;64402;44.708;37.644;2023-07-20T08:02:50;28.23;58.44
75786;DHT22;64402;44.708;37.644;2023-07-20T08:05:16;28.05;58.02
75786;DHT22;64402;44.708;37.644;2023-07-20T08:07:42;28.04;58.22
75786;DHT22;64402;44.708;37.644;2023-07-20T08:10:09;28.10;58.16
75786;DHT22;64402;44.708;37.644;2023-07-20T08:12:36;28.15;57.84
75786;DHT22;64402;44.708;37.644;2023-07-20T08:15:02;28.32;57.45
75786;DHT22;64402;44.708;37.644;2023-07-20T08:17:28;28.48;56.96
75786;DHT22;64402;44.708;37.644;2023-07-20T08:19:54;28.60;56.96
75786;DHT22;64402;44.708;37.644;2023-07-20T08:22:21;28.38;55.00
75786;DHT22;64402;44.708;37.644;2023-07-20T08:24:47;28.27;57.40
75786;DHT22;64402;44.708;37.644;2023-07-20T08:27:13;28.39;56.80
75786;DHT22;64402;44.708;37.644;2023-07-20T08:29:39;28.30;56.04
75786;DHT22;64402;44.708;37.644;2023-07-20T08:32:06;28.46;57.22
75786;DHT22;64402;44.708;37.644;2023-07-20T08:34:32;28.58;57.72
75786;DHT22;64402;44.708;37.644;2023-07-20T08:36:58;28.64;56.05
75786;DHT22;64402;44.708;37.644;2023-07-20T08:39:25;28.67;56.18
75786;DHT22;64402;44.708;37.644;2023-07-20T08:41:51;28.67;57.10
75786;DHT22;64402;44.708;37.644;2023-07-20T08:44:20;28.68;55.78
75786;DHT22;64402;44.708;37.644;2023-07-20T08:46:47;28.75;57.74
75786;DHT22;64402;44.708;37.644;2023-07-20T08:49:17;29.16;55.88
75786;DHT22;64402;44.708;37.644;2023-07-20T08:51:45;29.15;55.46
75786;DHT22;64402;44.708;37.644;2023-07-20T08:54:13;29.04;55.78
75786;DHT22;64402;44.708;37.644;2023-07-20T08:56:40;28.85;55.75
75786;DHT22;64402;44.708;37.644;2023-07-20T08:59:08;28.78;56.55
75786;DHT22;64402;44.708;37.644;2023-07-20T09:01:36;28.94;56.23
75786;DHT22;64402;44.708;37.644;2023-07-20T09:04:04;28.94;56.68
75786;DHT22;64402;44.708;37.644;2023-07-20T09:06:30;29.04;56.12
75786;DHT22;64402;44.708;37.644;2023-07-20T09:08:56;29.19;54.82
75786;DHT22;64402;44.708;37.644;2023-07-20T09:11:22;29.24;54.10
75786;DHT22;64402;44.708;37.644;2023-07-20T09:14:10;30.10;49.49
75786;DHT22;64402;44.708;37.644;2023-07-20T09:16:50;32.02;43.74
75786;DHT22;64402;44.708;37.644;2023-07-20T09:19:17;33.07;40.91
75786;DHT22;64402;44.708;37.644;2023-07-20T09:21:48;33.82;39.94
75786;DHT22;64402;44.708;37.644;2023-07-20T09:24:15;34.47;39.21
75786;DHT22;64402;44.708;37.644;2023-07-20T09:26:42;34.14;36.60
75786;DHT22;64402;44.708;37.644;2023-07-20T09:29:09;34.02;38.62
75786;DHT22;64402;44.708;37.644;2023-07-20T09:31:36;34.62;38.69
75786;DHT22;64402;44.708;37.644;2023-07-20T09:34:02;34.85;37.82
75786;DHT22;64402;44.708;37.644;2023-07-20T09:36:29;35.23;37.07
75786;DHT22;64402;44.708;37.644;2023-07-20T09:38:55;35.04;37.69
75786;DHT22;64402;44.708;37.644;2023-07-20T09:41:21;35.41;36.40
75786;DHT22;64402;44.708;37.644;2023-07-20T09:43:48;36.15;34.56
75786;DHT22;64402;44.708;37.644;2023-07-20T09:46:15;37.15;32.83
75786;DHT22;64402;44.708;37.644;2023-07-20T09:48:51;37.14;32.16
75786;DHT22;64402;44.708;37.644;2023-07-20T09:51:22;37.38;30.83
75786;DHT22;64402;44.708;37.644;2023-07-20T09:53:48;37.51;31.04
75786;DHT22;64402;44.708;37.644;2023-07-20T09:56:16;37.06;31.75
75786;DHT22;64402;44.708;37.644;2023-07-20T09:58:45;36.93;32.60
75786;DHT22;64402;44.708;37.644;2023-07-20T10:01:12;36.87;31.60
75786;DHT22;64402;44.708;37.644;2023-07-20T10:03:41;36.95;32.15
75786;DHT22;64402;44.708;37.644;2023-07-20T10:06:14;37.69;28.39
75786;DHT22;64402;44.708;37.644;2023-07-20T10:08:41;38.68;28.68
75786;DHT22;64402;44.708;37.644;2023-07-20T10:11:09;38.45;28.07
75786;DHT22;64402;44.708;37.644;2023-07-20T10:13:38;38.33;29.47
75786;DHT22;64402;44.708;37.644;2023-07-20T10:16:11;38.48;29.04
75786;DHT22;64402;44.708;37.644;2023-07-20T10:18:47;38.58;29.97
75786;DHT22;64402;44.708;37.644;2023-07-20T10:21:17;38.93;29.53
75786;DHT22;64402;44.708;37.644;2023-07-20T10:23:45;38.89;28.68
75786;DHT22;64402;44.708;37.644;2023-07-20T10:26:13;39.20;28.93
75786;DHT22;64402;44.708;37.644;2023-07-20T10:28:40;39.78;27.63
75786;DHT22;64402;44.708;37.644;2023-07-20T10:31:11;39.39;26.84
75786;DHT22;64402;44.708;37.644;2023-07-20T10:33:38;39.47;26.84
75786;DHT22;64402;44.708;37.644;2023-07-20T10:36:05;39.68;25.89
75786;DHT22;64402;44.708;37.644;2023-07-20T10:41:27;40.09;25.17
75786;DHT22;64402;44.708;37.644;2023-07-20T10:44:04;40.07;25.43
75786;DHT22;64402;44.708;37.644;2023-07-20T10:46:42;40.57;25.59
75786;DHT22;64402;44.708;37.644;2023-07-20T10:49:10;40.73;24.74
75786;DHT22;64402;44.708;37.644;2023-07-20T10:59:46;40.93;22.78
75786;DHT22;64402;44.708;37.644;2023-07-20T11:02:13;41.04;22.56
75786;DHT22;64402;44.708;37.644;2023-07-20T11:04:46;41.25;21.03
75786;DHT22;64402;44.708;37.644;2023-07-20T11:07:17;41.96;20.96
75786;DHT22;64402;44.708;37.644;2023-07-20T11:09:43;41.36;19.99
75786;DHT22;64402;44.708;37.644;2023-07-20T11:14:42;40.89;20.41
75786;DHT22;64402;44.708;37.644;2023-07-20T11:17:15;40.17;22.05
75786;DHT22;64402;44.708;37.644;2023-07-20T11:19:41;40.38;22.95
75786;DHT22;64402;44.708;37.644;2023-07-20T11:22:08;40.17;21.83
75786;DHT22;64402;44.708;37.644;2023-07-20T11:24:39;41.01;19.34
75786;DHT22;64402;44.708;37.644;2023-07-20T11:27:06;41.56;17.99
75786;DHT22;64402;44.708;37.644;2023-07-20T11:29:32;41.50;18.47
75786;DHT22;64402;44.708;37.644;2023-07-20T11:31:58;42.41;16.93
75786;DHT22;64402;44.708;37.644;2023-07-20T11:34:24;41.87;17.32
75786;DHT22;64402;44.708;37.644;2023-07-20T11:36:51;43.09;17.04
75786;DHT22;64402;44.708;37.644;2023-07-20T11:39:19;43.03;15.52
75786;DHT22;64402;44.708;37.644;2023-07-20T11:41:56;42.53;15.74
75786;DHT22;64402;44.708;37.644;2023-07-20T11:44:27;41.76;18.35
75786;DHT22;64402;44.708;37.644;2023-07-20T11:47:12;42.46;16.25
75786;DHT22;64402;44.708;37.644;2023-07-20T11:49:42;43.47;15.48
75786;DHT22;64402;44.708;37.644;2023-07-20T11:52:10;43.79;14.37
75786;DHT22;64402;44.708;37.644;2023-07-20T11:54:38;43.09;14.47
75786;DHT22;64402;44.708;37.644;2023-07-20T11:57:05;43.14;14.85
75786;DHT22;64402;44.708;37.644;2023-07-20T11:59:31;43.19;14.70
75786;DHT22;64402;44.708;37.644;2023-07-20T12:02:01;42.79;15.33
75786;DHT22;64402;44.708;37.644;2023-07-20T12:04:29;42.61;14.70
75786;DHT22;64402;44.708;37.644;2023-07-20T12:06:55;42.79;15.86
75786;DHT22;64402;44.708;37.644;2023-07-20T12:09:21;43.64;14.61
75786;DHT22;64402;44.708;37.644;2023-07-20T12:11:48;43.66;14.84
75786;DHT22;64402;44.708;37.644;2023-07-20T12:14:15;44.07;14.71
75786;DHT22;64402;44.708;37.644;2023-07-20T12:16:41;43.80;14.51
75786;DHT22;64402;44.708;37.644;2023-07-20T12:19:13;43.65;14.49
75786;DHT22;64402;44.708;37.644;2023-07-20T12:21:40;43.28;15.07
75786;DHT22;64402;44.708;37.644;2023-07-20T12:24:07;42.38;15.41
75786;DHT22;64402;44.708;37.644;2023-07-20T12:26:35;41.92;15.98
75786;DHT22;64402;44.708;37.644;2023-07-20T12:29:01;43.11;14.51
75786;DHT22;64402;44.708;37.644;2023-07-20T12:31:30;43.10;13.97
75786;DHT22;64402;44.708;37.644;2023-07-20T12:33:57;42.59;14.67
75786;DHT22;64402;44.708;37.644;2023-07-20T12:36:24;43.13;14.33
75786;DHT22;64402;44.708;37.644;2023-07-20T12:38:50;43.22;14.03
75786;DHT22;64402;44.708;37.644;2023-07-20T12:41:16;43.98;13.00
75786;DHT22;64402;44.708;37.644;2023-07-20T12:43:44;43.52;14.18
75786;DHT22;64402;44.708;37.644;2023-07-20T12:46:11;43.48;14.37
75786;DHT22;64402;44.708;37.644;2023-07-20T12:48:40;44.42;13.56
75786;DHT22;64402;44.708;37.644;2023-07-20T12:51:08;45.24;12.41
75786;DHT22;64402;44.708;37.644;2023-07-20T12:53:35;45.94;11.59
75786;DHT22;64402;44.708;37.644;2023-07-20T12:56:01;45.85;11.92
75786;DHT22;64402;44.708;37.644;2023-07-20T12:58:28;45.76;11.62
75786;DHT22;64402;44.708;37.644;2023-07-20T13:00:54;46.35;11.31
75786;DHT22;64402;44.708;37.644;2023-07-20T13:03:20;45.34;12.44
75786;DHT22;64402;44.708;37.644;2023-07-20T13:05:47;44.87;13.02
75786;DHT22;64402;44.708;37.644;2023-07-20T13:08:14;44.58;13.09
75786;DHT22;64402;44.708;37.644;2023-07-20T13:10:41;44.28;13.95
75786;DHT22;64402;44.708;37.644;2023-07-20T13:13:07;43.94;13.58
75786;DHT22;64402;44.708;37.644;2023-07-20T13:15:41;44.20;13.13
75786;DHT22;64402;44.708;37.644;2023-07-20T13:18:08;43.91;13.55
75786;DHT22;64402;44.708;37.644;2023-07-20T13:20:34;43.91;13.66
75786;DHT22;64402;44.708;37.644;2023-07-20T13:23:00;43.85;12.85
75786;DHT22;64402;44.708;37.644;2023-07-20T13:25:26;44.42;13.45
75786;DHT22;64402;44.708;37.644;2023-07-20T13:27:53;44.33;12.77
75786;DHT22;64402;44.708;37.644;2023-07-20T13:30:19;44.80;12.46
75786;DHT22;64402;44.708;37.644;2023-07-20T13:32:47;44.56;12.71
75786;DHT22;64402;44.708;37.644;2023-07-20T13:35:13;44.76;12.24
75786;DHT22;64402;44.708;37.644;2023-07-20T13:37:40;44.98;12.06
75786;DHT22;64402;44.708;37.644;2023-07-20T13:40:07;45.22;11.85
75786;DHT22;64402;44.708;37.644;2023-07-20T13:42:39;44.76;12.76
75786;DHT22;64402;44.708;37.644;2023-07-20T13:45:06;44.76;13.23
75786;DHT22;64402;44.708;37.644;2023-07-20T13:47:33;44.85;12.78
75786;DHT22;64402;44.708;37.644;2023-07-20T13:49:59;44.26;13.32
75786;DHT22;64402;44.708;37.644;2023-07-20T13:52:25;43.96;14.04
75786;DHT22;64402;44.708;37.644;2023-07-20T13:54:51;43.13;14.80
75786;DHT22;64402;44.708;37.644;2023-07-20T13:57:17;42.22;15.74
75786;DHT22;64402;44.708;37.644;2023-07-20T13:59:44;42.37;16.31
75786;DHT22;64402;44.708;37.644;2023-07-20T14:02:10;41.48;16.83
75786;DHT22;64402;44.708;37.644;2023-07-20T14:04:36;41.40;16.99
75786;DHT22;64402;44.708;37.644;2023-07-20T14:07:03;42.16;16.37
75786;DHT22;64402;44.708;37.644;2023-07-20T14:09:29;42.84;15.23
75786;DHT22;64402;44.708;37.644;2023-07-20T14:11:55;43.76;14.98
75786;DHT22;64402;44.708;37.644;2023-07-20T14:14:21;44.24;14.14
75786;DHT22;64402;44.708;37.644;2023-07-20T14:16:47;44.33;13.84
75786;DHT22;64402;44.708;37.644;2023-07-20T14:19:13;44.15;14.09
75786;DHT22;64402;44.708;37.644;2023-07-20T14:21:39;43.46;14.51
75786;DHT22;64402;44.708;37.644;2023-07-20T14:24:06;43.27;14.93
75786;DHT22;64402;44.708;37.644;2023-07-20T14:26:32;43.71;14.67
75786;DHT22;64402;44.708;37.644;2023-07-20T14:28:58;43.54;14.39
75786;DHT22;64402;44.708;37.644;2023-07-20T14:31:24;43.76;14.07
75786;DHT22;64402;44.708;37.644;2023-07-20T14:33:50;44.55;13.53
75786;DHT22;64402;44.708;37.644;2023-07-20T14:36:16;44.81;13.01
75786;DHT22;64402;44.708;37.644;2023-07-20T14:38:42;45.33;12.49
75786;DHT22;64402;44.708;37.644;2023-07-20T14:41:09;44.40;14.15
75786;DHT22;64402;44.708;37.644;2023-07-20T14:43:35;43.13;15.73
75786;DHT22;64402;44.708;37.644;2023-07-20T14:46:01;42.58;16.50
75786;DHT22;64402;44.708;37.644;2023-07-20T14:48:27;42.07;16.75
75786;DHT22;64402;44.708;37.644;2023-07-20T14:50:53;42.04;17.31
75786;DHT22;64402;44.708;37.644;2023-07-20T14:53:19;41.49;17.82
75786;DHT22;64402;44.708;37.644;2023-07-20T14:55:45;41.61;17.28
75786;DHT22;64402;44.708;37.644;2023-07-20T14:58:11;41.06;18.32
75786;DHT22;64402;44.708;37.644;2023-07-20T15:00:37;40.96;18.84
75786;DHT22;64402;44.708;37.644;2023-07-20T15:03:04;41.13;18.79
75786;DHT22;64402;44.708;37.644;2023-07-20T15:05:31;41.92;17.48
75786;DHT22;64402;44.708;37.644;2023-07-20T15:07:57;42.02;17.22
75786;DHT22;64402;44.708;37.644;2023-07-20T15:10:24;41.50;17.41
75786;DHT22;64402;44.708;37.644;2023-07-20T15:12:50;40.88;18.35
75786;DHT22;64402;44.708;37.644;2023-07-20T15:15:16;40.31;19.09
75786;DHT22;64402;44.708;37.644;2023-07-20T15:17:43;39.98;20.03
75786;DHT22;64402;44.708;37.644;2023-07-20T15:20:11;39.54;20.70
75786;DHT22;64402;44.708;37.644;2023-07-20T15:22:38;39.66;20.57
75786;DHT22;64402;44.708;37.644;2023-07-20T15:25:08;39.66;20.24
75786;DHT22;64402;44.708;37.644;2023-07-20T15:27:34;39.36;21.05
75786;DHT22;64402;44.708;37.644;2023-07-20T15:30:00;39.14;20.91
75786;DHT22;64402;44.708;37.644;2023-07-20T15:32:26;38.86;21.56
75786;DHT22;64402;44.708;37.644;2023-07-20T15:34:52;38.33;22.31
75786;DHT22;64402;44.708;37.644;2023-07-20T15:37:19;37.10;24.11
75786;DHT22;64402;44.708;37.644;2023-07-20T15:39:48;36.22;26.01
75786;DHT22;64402;44.708;37.644;2023-07-20T15:42:15;36.38;25.52
75786;DHT22;64402;44.708;37.644;2023-07-20T15:44:41;36.84;24.85
75786;DHT22;64402;44.708;37.644;2023-07-20T15:47:07;37.37;23.68
75786;DHT22;64402;44.708;37.644;2023-07-20T15:49:33;37.75;23.33